Time;durP1;ratioP1;P1;durP2;ratioP2;P2;SDS_P1;SDS_P2;PMS_P1;PMS_P2;Temp;Humidity;BMP_temperature;BMP_pressure;BME280_temperature;BME280_humidity;BME280_pressure;Samples;Min_cycle;Max_cycle;Signal;HPM_P1;HPM_P2
2022/11/17 00:01:18;;;;;;;0.70;0.70;;;;;5.90;94244.00;;;;5096621;28;20210;-59
2022/11/17 00:03:44;;;;;;;1.47;1.37;;;;;5.80;94249.00;;;;5078606;28;20226;-59
2022/11/17 00:06:12;;;;;;;1.37;1.27;;;;;5.90;94250.00;;;;5096521;28;20208;-60
2022/11/17 00:08:41;;;;;;;0.57;0.57;;;;;5.90;94241.00;;;;5096660;28;20233;-60
2022/11/17 00:11:08;;;;;;;0.90;0.90;;;;;6.00;94226.00;;;;5078437;28;20198;-60
2022/11/17 00:16:31;;;;;;;0.80;0.80;;;;;6.10;94231.00;;;;5034198;28;20213;-60
2022/11/17 00:21:44;;;;;;;0.70;0.70;;;;;6.10;94214.00;;;;5096100;28;20566;-62
2022/11/17 00:24:14;;;;;;;1.63;1.53;;;;;6.20;94210.00;;;;5095992;28;20232;-60
2022/11/17 00:29:23;;;;;;;1.33;1.27;;;;;6.30;94211.00;;;;5095096;28;20234;-63
2022/11/17 00:34:37;;;;;;;0.80;0.80;;;;;6.00;94198.00;;;;5078032;28;20575;-61
2022/11/17 00:37:05;;;;;;;1.10;1.10;;;;;6.10;94194.00;;;;5096064;28;20209;-61
2022/11/17 00:39:33;;;;;;;1.43;1.33;;;;;6.10;94185.00;;;;5095936;28;20199;-60
2022/11/17 00:41:59;;;;;;;2.97;1.87;;;;;6.20;94198.00;;;;5096003;28;20193;-60
2022/11/17 00:44:27;;;;;;;0.83;0.83;;;;;6.30;94199.00;;;;5095744;28;20295;-61
2022/11/17 00:46:53;;;;;;;0.80;0.80;;;;;6.10;94181.00;;;;5095721;28;20221;-61
2022/11/17 00:49:23;;;;;;;0.80;0.80;;;;;6.10;94161.00;;;;5095850;28;20225;-61
2022/11/17 00:51:53;;;;;;;2.00;1.57;;;;;6.00;94144.00;;;;5095676;28;20306;-60
2022/11/17 00:54:20;;;;;;;1.70;1.00;;;;;6.00;94150.00;;;;5095637;28;20193;-60
2022/11/17 00:56:48;;;;;;;1.60;1.50;;;;;6.00;94143.00;;;;5077811;28;20603;-60
2022/11/17 00:59:17;;;;;;;1.07;1.07;;;;;6.00;94145.00;;;;5095454;28;20198;-61
2022/11/17 01:01:47;;;;;;;0.70;0.70;;;;;6.00;94147.00;;;;5095537;28;20193;-60
2022/11/17 01:04:15;;;;;;;1.67;1.57;;;;;5.80;94139.00;;;;5095346;28;20240;-60
2022/11/17 01:06:43;;;;;;;1.10;1.07;;;;;5.90;94133.00;;;;5077587;28;20201;-61
2022/11/17 01:09:13;;;;;;;1.33;1.33;;;;;5.90;94129.00;;;;5077651;28;20677;-60
2022/11/17 01:11:41;;;;;;;1.43;1.30;;;;;5.90;94139.00;;;;5077649;28;20201;-60
2022/11/17 01:14:12;;;;;;;1.57;1.47;;;;;6.00;94128.00;;;;5095204;28;20251;-60
2022/11/17 01:16:39;;;;;;;0.80;0.80;;;;;6.00;94130.00;;;;5095211;28;20233;-61
2022/11/17 01:19:06;;;;;;;0.87;0.87;;;;;6.10;94116.00;;;;5095364;28;20267;-61
2022/11/17 01:21:35;;;;;;;0.83;0.83;;;;;6.20;94116.00;;;;5095105;28;20694;-61
2022/11/17 01:24:02;;;;;;;1.50;1.47;;;;;6.10;94128.00;;;;5095121;28;20201;-61
2022/11/17 01:26:31;;;;;;;0.93;0.93;;;;;6.10;94122.00;;;;5094988;28;20666;-59
2022/11/17 01:28:59;;;;;;;0.70;0.70;;;;;6.10;94114.00;;;;5095081;28;20709;-61
2022/11/17 01:31:28;;;;;;;0.83;0.83;;;;;6.20;94102.00;;;;5094947;28;20213;-59
2022/11/17 01:33:57;;;;;;;0.73;0.73;;;;;6.20;94105.00;;;;5094931;28;20219;-59
2022/11/17 01:36:26;;;;;;;0.97;0.97;;;;;6.20;94103.00;;;;5095153;28;20203;-60
2022/11/17 01:38:53;;;;;;;0.80;0.80;;;;;6.10;94104.00;;;;5094826;28;20195;-62
2022/11/17 01:41:21;;;;;;;1.20;1.20;;;;;6.10;94089.00;;;;5094919;28;20193;-60
2022/11/17 01:43:50;;;;;;;1.20;1.20;;;;;6.10;94082.00;;;;5094782;28;20219;-61
2022/11/17 01:46:28;;;;;;;0.60;0.60;;;;;6.20;94066.00;;;;5094799;28;20275;-60
2022/11/17 01:49:05;;;;;;;0.83;0.83;;;;;6.20;94050.00;;;;5094677;28;20240;-60
2022/11/17 01:51:34;;;;;;;1.07;1.07;;;;;6.20;94049.00;;;;5094729;28;20643;-60
2022/11/17 01:54:01;;;;;;;1.23;1.20;;;;;6.20;94043.00;;;;5094641;28;20206;-60
2022/11/17 01:56:37;;;;;;;1.67;1.57;;;;;6.20;94044.00;;;;5094162;28;20205;-60
2022/11/17 01:59:09;;;;;;;0.90;0.90;;;;;6.10;94047.00;;;;5094545;28;20208;-59
2022/11/17 02:01:54;;;;;;;3.60;1.17;;;;;6.00;94039.00;;;;5076745;28;20315;-60
2022/11/17 02:04:22;;;;;;;2.77;1.87;;;;;5.90;94030.00;;;;5094598;28;20826;-60
2022/11/17 02:06:51;;;;;;;1.47;1.37;;;;;5.90;94015.00;;;;5076708;28;20599;-60
2022/11/17 02:09:19;;;;;;;4.00;1.30;;;;;6.00;94020.00;;;;5094407;28;20218;-62
2022/11/17 02:11:48;;;;;;;1.60;1.50;;;;;6.00;94015.00;;;;5094412;28;20288;-60
2022/11/17 02:14:15;;;;;;;0.90;0.90;;;;;6.00;94020.00;;;;5076569;28;20207;-60
2022/11/17 02:16:43;;;;;;;1.00;1.00;;;;;6.00;94014.00;;;;5094473;28;20225;-63
2022/11/17 02:19:15;;;;;;;1.83;1.07;;;;;6.00;94019.00;;;;5094562;28;20206;-60
2022/11/17 02:22:09;;;;;;;4.10;1.30;;;;;6.00;94006.00;;;;5094275;28;20221;-60
2022/11/17 02:25:09;;;;;;;0.73;0.73;;;;;6.10;93981.00;;;;5076592;28;20205;-61
2022/11/17 02:28:03;;;;;;;0.90;0.90;;;;;6.20;93983.00;;;;5094099;28;20221;-61
2022/11/17 02:30:37;;;;;;;0.83;0.83;;;;;6.10;93991.00;;;;5094114;28;20257;-60
2022/11/17 02:33:10;;;;;;;13.37;1.13;;;;;6.20;93986.00;;;;5093948;28;20279;-58
2022/11/17 02:35:44;;;;;;;0.70;0.70;;;;;6.20;93983.00;;;;5094188;28;20194;-61
2022/11/17 02:38:21;;;;;;;0.50;0.50;;;;;6.20;93986.00;;;;5094005;28;20202;-61
2022/11/17 02:40:57;;;;;;;0.63;0.63;;;;;6.20;93998.00;;;;5094062;28;20264;-61
2022/11/17 02:46:21;;;;;;;0.87;0.87;;;;;6.20;94014.00;;;;5093840;28;20212;-61
2022/11/17 02:48:52;;;;;;;1.20;1.20;;;;;6.00;94026.00;;;;5093741;28;20211;-61
2022/11/17 02:51:22;;;;;;;2.27;1.37;;;;;5.90;94027.00;;;;5093812;28;20228;-61
2022/11/17 02:53:51;;;;;;;0.80;0.80;;;;;5.70;94034.00;;;;5093756;28;20604;-61
2022/11/17 02:56:18;;;;;;;0.77;0.77;;;;;5.70;94022.00;;;;5093695;28;20219;-61
2022/11/17 02:58:49;;;;;;;0.73;0.73;;;;;5.80;94008.00;;;;5093901;28;20198;-62
2022/11/17 03:01:39;;;;;;;1.27;1.27;;;;;6.00;93988.00;;;;5075965;28;20736;-61
2022/11/17 03:04:25;;;;;;;1.17;1.17;;;;;6.10;93981.00;;;;5093705;28;20204;-61
2022/11/17 03:07:05;;;;;;;3.10;2.20;;;;;6.10;93985.00;;;;5093721;28;20286;-59
2022/11/17 03:09:43;;;;;;;1.67;1.57;;;;;6.20;93982.00;;;;5092409;28;20541;-59
2022/11/17 03:12:16;;;;;;;0.70;0.70;;;;;6.40;93978.00;;;;5093472;28;20202;-59
2022/11/17 03:14:56;;;;;;;1.00;1.00;;;;;6.60;93988.00;;;;5093733;28;20199;-60
2022/11/17 03:17:31;;;;;;;0.80;0.80;;;;;6.70;93985.00;;;;5093618;28;20531;-62
2022/11/17 03:20:03;;;;;;;1.10;1.10;;;;;6.60;93985.00;;;;5093394;28;20264;-59
2022/11/17 03:22:40;;;;;;;1.20;1.20;;;;;6.60;93977.00;;;;5093399;28;20251;-59
2022/11/17 03:25:15;;;;;;;1.13;1.13;;;;;6.80;93971.00;;;;5093389;28;20225;-60
2022/11/17 03:27:47;;;;;;;0.50;0.50;;;;;6.90;93969.00;;;;5093346;28;20278;-60
2022/11/17 03:30:16;;;;;;;0.90;0.90;;;;;6.90;93969.00;;;;5093253;28;20250;-62
2022/11/17 03:32:48;;;;;;;0.80;0.80;;;;;6.90;93983.00;;;;5075737;28;20699;-61
2022/11/17 03:35:18;;;;;;;1.73;1.63;;;;;7.10;93972.00;;;;5093443;28;20225;-59
2022/11/17 03:37:48;;;;;;;0.60;0.60;;;;;7.10;93967.00;;;;5093774;28;20639;-60
2022/11/17 03:40:18;;;;;;;0.87;0.87;;;;;7.20;93967.00;;;;5093055;28;20233;-60
2022/11/17 03:42:52;;;;;;;0.90;0.90;;;;;7.10;93962.00;;;;5093401;28;20232;-60
2022/11/17 03:45:24;;;;;;;0.90;0.90;;;;;7.20;93958.00;;;;5093232;28;20218;-60
2022/11/17 03:47:55;;;;;;;1.00;1.00;;;;;7.30;93959.00;;;;5093216;28;20203;-60
2022/11/17 03:50:29;;;;;;;0.53;0.53;;;;;7.30;93958.00;;;;5092939;28;20225;-59
2022/11/17 03:52:56;;;;;;;0.63;0.63;;;;;7.30;93954.00;;;;5093032;28;20222;-59
2022/11/17 03:55:32;;;;;;;1.70;1.37;;;;;7.20;93944.00;;;;5092944;28;20199;-59
2022/11/17 03:58:05;;;;;;;0.50;0.50;;;;;7.20;93946.00;;;;5092966;28;20214;-61
2022/11/17 04:00:35;;;;;;;0.90;0.90;;;;;7.20;93949.00;;;;5093201;28;20198;-60
2022/11/17 04:03:04;;;;;;;1.23;1.13;;;;;7.20;93962.00;;;;5093052;28;20233;-60
2022/11/17 04:05:31;;;;;;;1.13;1.03;;;;;7.20;93950.00;;;;5092898;28;20222;-60
2022/11/17 04:08:00;;;;;;;1.17;1.13;;;;;7.30;93952.00;;;;5092913;28;20202;-60
2022/11/17 04:10:29;;;;;;;1.10;1.07;;;;;7.20;93954.00;;;;5092737;28;20219;-60
2022/11/17 04:15:57;;;;;;;1.00;1.00;;;;;7.40;93943.00;;;;5092666;28;20230;-59
2022/11/17 04:18:25;;;;;;;2.00;1.57;;;;;7.50;93955.00;;;;5092724;28;20209;-59
2022/11/17 04:20:53;;;;;;;0.57;0.57;;;;;7.50;93945.00;;;;5095214;28;20218;-60
2022/11/17 04:23:21;;;;;;;0.80;0.80;;;;;7.40;93954.00;;;;5096097;28;20206;-60
2022/11/17 04:28:37;;;;;;;0.80;0.80;;;;;7.70;93926.00;;;;5096099;28;20228;-60
2022/11/17 04:31:10;;;;;;;0.87;0.87;;;;;7.70;93944.00;;;;5095832;28;20592;-60
2022/11/17 04:33:38;;;;;;;0.80;0.80;;;;;7.80;93927.00;;;;5096080;28;20194;-63
2022/11/17 04:36:06;;;;;;;2.47;1.53;;;;;7.90;93936.00;;;;5096473;28;20631;-61
2022/11/17 04:38:34;;;;;;;1.07;0.97;;;;;7.80;93935.00;;;;5095996;28;20199;-60
2022/11/17 04:43:45;;;;;;;0.67;0.67;;;;;7.70;93934.00;;;;5062493;28;20626;-60
2022/11/17 04:46:12;;;;;;;0.93;0.93;;;;;7.80;93931.00;;;;5095992;28;20639;-63
2022/11/17 04:48:41;;;;;;;1.00;1.00;;;;;7.80;93923.00;;;;5095841;28;20229;-62
2022/11/17 04:51:08;;;;;;;0.67;0.67;;;;;7.80;93914.00;;;;5096039;28;20246;-62
2022/11/17 04:53:35;;;;;;;1.23;1.00;;;;;7.60;93924.00;;;;5077970;28;20195;-60
2022/11/17 04:56:02;;;;;;;2.10;1.90;;;;;7.70;93922.00;;;;5078151;28;20202;-60
2022/11/17 04:58:31;;;;;;;0.97;0.97;;;;;7.70;93932.00;;;;5077779;28;20210;-60
2022/11/17 05:01:11;;;;;;;1.40;1.23;;;;;7.90;93935.00;;;;5095615;28;20316;-60
2022/11/17 05:03:40;;;;;;;0.80;0.80;;;;;7.90;93926.00;;;;5077736;28;20753;-60
2022/11/17 05:06:07;;;;;;;1.50;1.40;;;;;7.90;93926.00;;;;5095416;28;20670;-59
2022/11/17 05:08:35;;;;;;;1.83;1.30;;;;;7.80;93923.00;;;;5077769;28;20210;-60
2022/11/17 05:13:49;;;;;;;0.90;0.90;;;;;7.80;93925.00;;;;5095511;28;20198;-60
2022/11/17 05:19:01;;;;;;;0.93;0.83;;;;;8.00;93935.00;;;;5095481;28;20210;-60
2022/11/17 05:21:28;;;;;;;3.03;1.43;;;;;7.90;93931.00;;;;5095382;28;20220;-60
2022/11/17 05:23:55;;;;;;;0.70;0.70;;;;;7.90;93931.00;;;;5077380;28;20210;-60
2022/11/17 05:26:23;;;;;;;0.70;0.70;;;;;7.90;93929.00;;;;5095114;28;20183;-61
2022/11/17 05:28:51;;;;;;;0.90;0.90;;;;;7.90;93930.00;;;;5095099;28;20206;-58
2022/11/17 05:31:17;;;;;;;1.17;1.17;;;;;7.90;93933.00;;;;5094115;28;20191;-58
2022/11/17 05:33:44;;;;;;;0.73;0.73;;;;;7.90;93927.00;;;;5094982;28;20304;-59
2022/11/17 05:36:13;;;;;;;0.70;0.70;;;;;7.90;93929.00;;;;5095081;28;20216;-59
2022/11/17 05:38:42;;;;;;;0.60;0.60;;;;;8.00;93919.00;;;;5095062;28;20682;-61
2022/11/17 05:41:09;;;;;;;1.17;1.17;;;;;8.00;93920.00;;;;5094995;28;20225;-60
2022/11/17 05:43:36;;;;;;;0.73;0.73;;;;;8.10;93910.00;;;;5094907;28;20187;-60
2022/11/17 05:46:03;;;;;;;0.53;0.53;;;;;8.10;93923.00;;;;5094903;28;20206;-60
2022/11/17 05:48:30;;;;;;;0.53;0.53;;;;;8.00;93930.00;;;;5094940;28;20214;-65
2022/11/17 05:50:59;;;;;;;0.50;0.50;;;;;8.10;93934.00;;;;5094972;28;20223;-62
2022/11/17 05:53:28;;;;;;;0.77;0.77;;;;;8.10;93923.00;;;;5095113;28;20195;-61
2022/11/17 05:56:09;;;;;;;0.77;0.77;;;;;8.20;93936.00;;;;5094678;28;20283;-61
2022/11/17 05:58:38;;;;;;;0.57;0.57;;;;;8.10;93926.00;;;;5094685;28;20659;-61
2022/11/17 06:01:07;;;;;;;0.83;0.83;;;;;8.10;93915.00;;;;5094469;28;20194;-61
2022/11/17 06:03:37;;;;;;;0.60;0.60;;;;;8.20;93932.00;;;;5094807;28;20202;-61
2022/11/17 06:06:05;;;;;;;0.83;0.83;;;;;8.10;93930.00;;;;5094843;28;20508;-60
2022/11/17 06:08:34;;;;;;;0.80;0.80;;;;;8.20;93936.00;;;;5094568;28;20214;-65
2022/11/17 06:11:03;;;;;;;0.77;0.77;;;;;8.30;93926.00;;;;5094450;28;20237;-61
2022/11/17 06:13:30;;;;;;;1.03;1.03;;;;;8.30;93940.00;;;;5094263;28;20217;-61
2022/11/17 06:15:58;;;;;;;1.07;1.07;;;;;8.30;93935.00;;;;5094396;28;20190;-61
2022/11/17 06:18:34;;;;;;;0.60;0.60;;;;;8.30;93935.00;;;;5076409;28;20236;-61
2022/11/17 06:21:04;;;;;;;0.90;0.90;;;;;8.30;93933.00;;;;5094350;28;20232;-62
2022/11/17 06:23:33;;;;;;;0.57;0.57;;;;;8.30;93928.00;;;;5094143;28;20201;-61
2022/11/17 06:26:03;;;;;;;1.20;1.10;;;;;8.20;93926.00;;;;5094267;28;20712;-61
2022/11/17 06:28:33;;;;;;;3.30;2.20;;;;;8.20;93933.00;;;;5076364;28;20206;-61
2022/11/17 06:31:00;;;;;;;0.80;0.80;;;;;8.30;93936.00;;;;5094107;28;20215;-65
2022/11/17 06:33:29;;;;;;;1.03;1.03;;;;;8.30;93945.00;;;;5094085;28;20207;-62
2022/11/17 06:35:58;;;;;;;0.70;0.70;;;;;8.30;93949.00;;;;5094038;28;20577;-60
2022/11/17 06:38:25;;;;;;;0.67;0.67;;;;;8.30;93938.00;;;;5094192;28;20203;-61
2022/11/17 06:40:52;;;;;;;0.60;0.60;;;;;8.30;93926.00;;;;5094064;28;20230;-60
2022/11/17 06:43:22;;;;;;;1.03;1.03;;;;;8.30;93913.00;;;;5076229;28;20596;-61
2022/11/17 06:45:48;;;;;;;1.10;1.10;;;;;8.30;93930.00;;;;5094051;28;20194;-59
2022/11/17 06:48:17;;;;;;;1.33;1.13;;;;;8.50;93938.00;;;;5093896;28;20198;-60
2022/11/17 06:50:48;;;;;;;0.83;0.83;;;;;8.30;93929.00;;;;5093810;28;20214;-60
2022/11/17 06:53:15;;;;;;;1.37;1.27;;;;;8.30;93924.00;;;;5093803;28;20221;-61
2022/11/17 06:55:48;;;;;;;0.80;0.80;;;;;8.40;93921.00;;;;5093874;28;20199;-61
2022/11/17 06:58:15;;;;;;;0.87;0.87;;;;;8.50;93929.00;;;;5093702;28;20222;-60
2022/11/17 07:00:42;;;;;;;0.70;0.70;;;;;8.50;93941.00;;;;5093784;28;20210;-63
2022/11/17 07:03:10;;;;;;;0.50;0.50;;;;;8.50;93936.00;;;;5093621;28;20218;-61
2022/11/17 07:05:38;;;;;;;0.60;0.60;;;;;8.50;93946.00;;;;5093762;28;20635;-62
2022/11/17 07:08:07;;;;;;;0.53;0.53;;;;;8.60;93935.00;;;;5093665;28;20198;-61
2022/11/17 07:10:35;;;;;;;0.60;0.60;;;;;8.70;93935.00;;;;5093458;28;20232;-60
2022/11/17 07:13:05;;;;;;;0.70;0.70;;;;;8.80;93941.00;;;;5093795;28;20611;-61
2022/11/17 07:15:32;;;;;;;0.57;0.57;;;;;8.90;93952.00;;;;5093694;28;20679;-60
2022/11/17 07:17:59;;;;;;;5.43;1.70;;;;;8.90;93944.00;;;;5093569;28;20267;-61
2022/11/17 07:20:26;;;;;;;0.80;0.80;;;;;8.90;93947.00;;;;5093371;28;20210;-60
2022/11/17 07:22:59;;;;;;;0.50;0.50;;;;;9.10;93936.00;;;;5093347;28;20191;-60
2022/11/17 07:25:25;;;;;;;1.00;1.00;;;;;9.10;93936.00;;;;5075508;28;20263;-62
2022/11/17 07:27:58;;;;;;;0.70;0.70;;;;;9.20;93951.00;;;;5093537;28;20297;-61
2022/11/17 07:30:25;;;;;;;0.80;0.80;;;;;9.40;93945.00;;;;5093213;28;20253;-60
2022/11/17 07:32:53;;;;;;;0.50;0.50;;;;;9.30;93964.00;;;;5093321;28;20268;-60
2022/11/17 07:35:19;;;;;;;0.70;0.70;;;;;9.40;93955.00;;;;5075472;28;20527;-61
2022/11/17 07:37:46;;;;;;;0.73;0.73;;;;;9.60;93945.00;;;;5093290;28;20249;-60
2022/11/17 07:40:13;;;;;;;0.97;0.97;;;;;9.60;93934.00;;;;5093221;28;20210;-60
2022/11/17 07:42:48;;;;;;;0.67;0.67;;;;;9.60;93922.00;;;;5093033;28;20273;-60
2022/11/17 07:45:15;;;;;;;0.50;0.50;;;;;9.60;93923.00;;;;5075262;28;20643;-60
2022/11/17 07:47:44;;;;;;;0.50;0.50;;;;;9.70;93927.00;;;;5093022;28;20584;-59
2022/11/17 07:50:11;;;;;;;0.97;0.97;;;;;9.80;93929.00;;;;5093010;28;20226;-64
2022/11/17 07:52:38;;;;;;;0.50;0.50;;;;;9.80;93941.00;;;;5093293;28;20264;-60
2022/11/17 07:55:06;;;;;;;0.47;0.47;;;;;9.80;93946.00;;;;5076608;28;20226;-61
2022/11/17 07:57:33;;;;;;;2.27;1.03;;;;;9.90;93946.00;;;;5096969;28;20198;-62
2022/11/17 07:59:59;;;;;;;0.50;0.50;;;;;9.90;93948.00;;;;5096766;28;20226;-61
2022/11/17 08:02:27;;;;;;;0.90;0.90;;;10.50;94.50;9.80;93961.00;;;;5096723;28;20199;-61
2022/11/17 08:04:53;;;;;;;0.50;0.50;;;10.60;94.80;10.00;93952.00;;;;5096417;28;20210;-60
2022/11/17 08:07:21;;;;;;;0.50;0.50;;;;;10.00;93962.00;;;;5096602;28;20656;-59
2022/11/17 08:09:47;;;;;;;0.47;0.47;;;10.70;94.20;10.00;93959.00;;;;5096406;28;20215;-61
2022/11/17 08:12:16;;;;;;;0.70;0.70;;;;;9.90;93968.00;;;;5096362;28;20199;-60
2022/11/17 08:14:43;;;;;;;0.60;0.60;;;;;9.80;93972.00;;;;5078432;28;20527;-60
2022/11/17 08:17:10;;;;;;;0.60;0.60;;;;;9.70;93982.00;;;;5078538;28;20241;-60
2022/11/17 08:19:37;;;;;;;1.30;1.23;;;;;9.90;93974.00;;;;5078603;28;20199;-60
2022/11/17 08:22:03;;;;;;;0.57;0.57;;;10.40;95.60;9.70;93981.00;;;;5096430;28;20215;-61
2022/11/17 08:24:30;;;;;;;0.50;0.50;;;10.30;95.60;9.70;93977.00;;;;5096354;28;20213;-60
2022/11/17 08:26:56;;;;;;;0.60;0.60;;;10.40;96.60;9.70;93969.00;;;;5096252;28;20619;-61
2022/11/17 08:29:23;;;;;;;0.50;0.50;;;10.40;96.80;9.90;93977.00;;;;5095133;28;20226;-61
2022/11/17 08:31:50;;;;;;;0.80;0.80;;;10.50;96.60;10.00;93978.00;;;;5096067;28;20700;-60
2022/11/17 08:34:16;;;;;;;0.50;0.50;;;10.60;96.80;9.80;93972.00;;;;5096392;28;20222;-60
2022/11/17 08:36:45;;;;;;;0.40;0.40;;;;;10.00;93981.00;;;;5095924;28;20280;-60
2022/11/17 08:39:14;;;;;;;0.60;0.60;;;10.60;95.00;9.70;93977.00;;;;5095872;28;20244;-60
2022/11/17 08:41:41;;;;;;;0.50;0.50;;;10.40;96.20;9.90;93975.00;;;;5095991;28;20252;-60
2022/11/17 08:44:08;;;;;;;0.53;0.53;;;10.40;96.70;9.90;93981.00;;;;5095947;28;20194;-60
2022/11/17 08:46:34;;;;;;;0.43;0.43;;;10.50;95.70;10.00;93987.00;;;;5096000;28;20249;-60
2022/11/17 08:49:01;;;;;;;0.77;0.77;;;10.60;96.00;9.80;93991.00;;;;5096015;28;20198;-62
2022/11/17 08:51:30;;;;;;;0.67;0.67;;;10.50;94.60;9.80;93988.00;;;;5094716;28;20288;-61
2022/11/17 08:53:58;;;;;;;0.60;0.60;;;;;9.90;93993.00;;;;5095758;28;20561;-59
2022/11/17 08:56:27;;;;;;;0.83;0.83;;;;;9.90;94012.00;;;;5095787;28;20283;-60
2022/11/17 08:58:54;;;;;;;0.43;0.43;;;10.60;93.10;10.00;94017.00;;;;5077937;28;20260;-61
2022/11/17 09:01:21;;;;;;;0.60;0.60;;;;;9.90;94010.00;;;;5094578;28;20237;-61
2022/11/17 09:03:48;;;;;;;0.50;0.50;;;;;10.00;94011.00;;;;5095617;28;20583;-60
2022/11/17 09:06:17;;;;;;;0.50;0.50;;;;;9.80;94008.00;;;;5094299;28;20187;-60
2022/11/17 09:08:43;;;;;;;0.50;0.50;;;;;9.90;94005.00;;;;5077780;28;20206;-60
2022/11/17 09:11:13;;;;;;;0.50;0.50;;;;;9.90;94013.00;;;;5095480;28;20648;-61
2022/11/17 09:13:41;;;;;;;0.47;0.47;;;;;9.80;94030.00;;;;5095341;28;20272;-60
2022/11/17 09:16:10;;;;;;;1.10;1.10;;;;;9.90;94017.00;;;;5095629;28;20209;-60
2022/11/17 09:18:38;;;;;;;0.43;0.43;;;;;9.80;94027.00;;;;5095272;28;20226;-58
2022/11/17 09:21:07;;;;;;;0.50;0.50;;;;;9.80;94026.00;;;;5095407;28;20214;-61
2022/11/17 09:23:34;;;;;;;0.50;0.50;;;10.40;93.10;9.80;94044.00;;;;5095275;28;20199;-61
2022/11/17 09:26:05;;;;;;;0.77;0.77;;;10.40;94.60;9.80;94038.00;;;;5095242;28;20214;-60
2022/11/17 09:28:32;;;;;;;0.50;0.50;;;10.40;93.20;9.90;94029.00;;;;5095304;28;20187;-61
2022/11/17 09:30:59;;;;;;;2.93;1.53;;;10.60;92.80;10.10;94043.00;;;;5095121;28;20246;-60
2022/11/17 09:33:27;;;;;;;0.50;0.50;;;10.60;92.40;10.00;94034.00;;;;5095190;28;20195;-62
2022/11/17 09:35:56;;;;;;;0.83;0.83;;;10.70;92.90;10.10;94049.00;;;;5077330;28;20230;-62
2022/11/17 09:38:23;;;;;;;0.60;0.60;;;10.50;92.90;9.90;94046.00;;;;5094949;28;20221;-62
2022/11/17 09:40:51;;;;;;;0.70;0.70;;;10.70;92.70;10.00;94047.00;;;;5095020;28;20214;-64
2022/11/17 09:43:27;;;;;;;2.20;0.80;;;10.70;92.80;10.30;94040.00;;;;5095284;28;20289;-62
2022/11/17 09:46:02;;;;;;;1.17;0.77;;;10.90;93.20;10.10;94042.00;;;;5095170;28;20568;-61
2022/11/17 09:48:39;;;;;;;0.43;0.43;;;;;10.20;94048.00;;;;5095104;28;20224;-61
2022/11/17 09:51:09;;;;;;;0.60;0.60;;;;;10.10;94053.00;;;;5077206;28;20222;-60
2022/11/17 09:53:45;;;;;;;0.50;0.50;;;;;10.10;94057.00;;;;5094847;28;20194;-59
2022/11/17 09:56:14;;;;;;;0.67;0.67;;;;;10.10;94049.00;;;;5094731;28;20237;-60
2022/11/17 09:58:46;;;;;;;0.90;0.90;;;;;10.10;94054.00;;;;5094855;28;20198;-60
2022/11/17 10:01:17;;;;;;;0.60;0.60;;;;;10.40;94044.00;;;;5094905;28;20294;-63
2022/11/17 10:03:49;;;;;;;0.43;0.43;;;;;10.50;94036.00;;;;5095027;28;20199;-60
2022/11/17 10:06:21;;;;;;;0.50;0.50;;;;;10.70;94049.00;;;;5077101;28;20254;-59
2022/11/17 10:08:57;;;;;;;0.50;0.50;;;;;10.40;94052.00;;;;5094710;28;20344;-59
2022/11/17 10:11:32;;;;;;;0.60;0.60;;;;;10.30;94054.00;;;;5094480;28;20237;-59
2022/11/17 10:14:03;;;;;;;0.57;0.57;;;;;10.30;94053.00;;;;5094506;28;20211;-58
2022/11/17 10:16:32;;;;;;;0.70;0.70;;;10.90;89.10;10.30;94055.00;;;;5094508;28;20195;-60
2022/11/17 10:19:02;;;;;;;0.73;0.73;;;10.90;88.80;10.30;94043.00;;;;5094107;28;20202;-59
2022/11/17 10:21:29;;;;;;;0.43;0.43;;;10.90;88.80;10.30;94060.00;;;;5093465;28;20202;-59
2022/11/17 10:23:58;;;;;;;0.50;0.50;;;10.80;89.80;10.30;94062.00;;;;5094316;28;20207;-60
2022/11/17 10:26:26;;;;;;;0.60;0.60;;;;;10.30;94084.00;;;;5093473;28;20659;-59
2022/11/17 10:29:08;;;;;;;9.07;1.00;;;11.00;95.80;10.60;94072.00;;;;5094311;28;20198;-59
2022/11/17 10:31:42;;;;;;;0.70;0.70;;;10.90;90.90;10.20;94091.00;;;;5094394;28;20194;-59
2022/11/17 10:34:31;;;;;;;0.47;0.47;;;10.90;89.70;10.20;94075.00;;;;5094362;28;20190;-59
2022/11/17 10:37:05;;;;;;;0.60;0.60;;;10.80;91.30;10.30;94082.00;;;;5094263;28;20199;-60
2022/11/17 10:39:36;;;;;;;0.77;0.77;;;10.80;89.90;10.60;94081.00;;;;5094286;28;20190;-59
2022/11/17 10:42:21;;;;;;;0.40;0.40;;;11.10;89.20;11.00;94076.00;;;;5094312;28;20289;-60
2022/11/17 10:44:51;;;;;;;0.70;0.70;;;11.40;89.00;10.90;94062.00;;;;5094028;28;20548;-60
2022/11/17 10:47:28;;;;;;;6.87;1.03;;;11.50;87.20;11.00;94068.00;;;;5094040;28;20209;-60
2022/11/17 10:50:26;;;;;;;1.07;1.07;;;11.50;86.20;11.20;94055.00;;;;5093291;28;20577;-62
2022/11/17 10:53:14;;;;;;;0.73;0.73;;;11.70;85.80;11.30;94061.00;;;;5094210;28;20230;-59
2022/11/17 10:55:43;;;;;;;0.77;0.77;;;11.80;83.80;11.00;94089.00;;;;5093864;28;20221;-61
2022/11/17 10:58:26;;;;;;;0.57;0.57;;;11.40;83.80;10.70;94073.00;;;;5093913;28;20602;-61
2022/11/17 11:00:55;;;;;;;0.60;0.60;;;;;10.80;94122.00;;;;5093999;28;20170;-59
2022/11/17 11:03:24;;;;;;;0.47;0.47;;;11.40;87.20;10.90;94061.00;;;;5093959;28;20695;-59
2022/11/17 11:06:01;;;;;;;0.70;0.70;;;11.30;85.30;10.50;94078.00;;;;5093849;28;20195;-59
2022/11/17 11:08:46;;;;;;;5.00;0.90;;;;;10.20;94095.00;;;;5093756;28;20214;-61
2022/11/17 11:11:27;;;;;;;0.60;0.60;;;;;10.00;94091.00;;;;5093654;28;20222;-61
2022/11/17 11:13:56;;;;;;;0.50;0.50;;;;;9.90;94074.00;;;;5075750;28;20210;-59
2022/11/17 11:16:28;;;;;;;0.40;0.40;;;;;9.90;94073.00;;;;5075716;28;20263;-59
2022/11/17 11:18:54;;;;;;;0.50;0.50;;;10.50;94.60;9.70;94085.00;;;;5093605;28;20186;-59
2022/11/17 11:21:35;;;;;;;2.33;1.03;;;;;9.70;94071.00;;;;5075628;28;20259;-59
2022/11/17 11:24:14;;;;;;;0.60;0.60;;;10.40;96.20;9.70;94083.00;;;;5093610;28;20225;-59
2022/11/17 11:26:56;;;;;;;0.50;0.50;;;10.40;95.80;10.00;94077.00;;;;5093514;28;20209;-59
2022/11/17 11:29:29;;;;;;;0.57;0.57;;;;;10.00;94091.00;;;;5094006;28;20214;-59
2022/11/17 11:32:23;;;;;;;0.50;0.50;;;10.50;96.50;10.00;94065.00;;;;5097248;28;20198;-59
2022/11/17 11:35:30;;;;;;;0.60;0.60;;;;;12.00;94035.00;;;;5097046;28;20813;-59
2022/11/17 11:38:23;;;;;;;0.50;0.50;;;13.30;85.80;13.60;94019.00;;;;5049801;28;20206;-58
2022/11/17 11:41:16;;;;;;;1.23;1.13;;;14.30;79.30;14.80;93996.00;;;;5096852;28;20225;-59
2022/11/17 11:43:58;;;;;;;1.10;0.93;;;14.90;73.80;15.00;93996.00;;;;5096130;28;20195;-59
2022/11/17 11:46:45;;;;;;;0.70;0.70;;;14.60;72.40;14.40;93982.00;;;;5096855;28;20218;-59
2022/11/17 11:49:27;;;;;;;0.83;0.83;;;15.00;71.00;15.20;93999.00;;;;5096826;28;20673;-59
2022/11/17 11:51:54;;;;;;;0.50;0.50;;;14.90;69.80;14.90;93995.00;;;;5096694;28;20287;-61
2022/11/17 11:54:34;;;;;;;0.50;0.50;;;14.50;69.90;14.30;93995.00;;;;5096849;28;20205;-60
2022/11/17 11:57:01;;;;;;;0.50;0.50;;;;;14.80;94001.00;;;;5096563;28;20279;-60
2022/11/17 11:59:40;;;;;;;0.70;0.70;;;15.50;60.00;15.50;93990.00;;;;5096589;28;20228;-60
2022/11/17 12:02:27;;;;;;;0.50;0.50;;;14.30;57.10;14.60;93986.00;;;;5096804;28;20233;-60
2022/11/17 12:05:11;;;;;;;1.33;0.87;;;15.40;52.80;15.30;93993.00;;;;5096691;28;20213;-59
2022/11/17 12:07:46;;;;;;;0.50;0.50;;;16.10;48.80;15.70;94002.00;;;;5095518;28;20230;-60
2022/11/17 12:10:21;;;;;;;1.17;1.00;;;;;17.20;94014.00;;;;5095497;28;20222;-60
2022/11/17 12:12:48;;;;;;;0.50;0.50;;;;;16.50;93989.00;;;;5096251;28;20682;-60
2022/11/17 12:15:32;;;;;;;0.50;0.50;;;;;19.30;94009.00;;;;5096380;28;20199;-60
2022/11/17 12:18:02;;;;;;;0.83;0.83;;;;;18.20;93997.00;;;;5096227;28;20209;-60
2022/11/17 12:21:10;;;;;;;0.43;0.43;;;18.40;38.60;18.60;94012.00;;;;5096519;28;20278;-59
2022/11/17 12:24:25;;;;;;;0.30;0.30;;;19.10;36.10;19.10;94006.00;;;;5096275;28;20252;-60
2022/11/17 12:27:31;;;;;;;0.40;0.40;;;16.40;44.40;16.30;93986.00;;;;5050522;28;20210;-60
2022/11/17 12:29:58;;;;;;;0.40;0.40;;;18.20;39.20;18.30;93980.00;;;;5095988;28;20222;-60
2022/11/17 12:32:50;;;;;;;0.40;0.40;;;;;19.80;93967.00;;;;5096102;28;20225;-61
2022/11/17 12:35:24;;;;;;;0.50;0.50;;;17.00;38.70;16.70;94005.00;;;;5095944;28;20609;-60
2022/11/17 12:38:24;;;;;;;1.47;1.27;;;;;16.10;93973.00;;;;5096192;28;20208;-59
2022/11/17 12:40:52;;;;;;;0.50;0.50;;;17.70;38.30;17.90;93972.00;;;;5095372;28;20230;-60
2022/11/17 12:43:21;;;;;;;0.40;0.40;;;;;17.70;94025.00;;;;5095948;28;20215;-60
2022/11/17 12:46:21;;;;;;;0.80;0.80;;;17.30;38.80;17.30;94023.00;;;;5095758;28;20613;-60
2022/11/17 12:49:00;;;;;;;1.07;0.80;;;;;16.90;94019.00;;;;5095856;28;20217;-61
2022/11/17 12:51:38;;;;;;;4.23;1.27;;;;;16.20;94063.00;;;;5095979;28;20249;-61
2022/11/17 12:54:19;;;;;;;0.83;0.83;;;;;14.70;94026.00;;;;5095876;28;20208;-61